Sunday, July 31, 2016, 5:19 AM EDT

KRIC, Richmond International Airport

Location: Sandston, VA, United States Lat: 37.517
Local Time: 5:19 AM EDT ( 9:19 GMT) Lon: -77.317
Time Zone: US/Eastern Elev: 167 ft

Show me the last for .
Show Decoded

2016-07-31 04:54 METAR KRIC 310854Z 11003KT 10SM OVC007 22/22 A2995 RMK AO2 SLP146 T02220217
                 53001 $ =
2016-07-31 04:33 METAR KRIC 310833Z 16003KT 10SM FEW007 FEW250 22/22 A2995 RMK AO2 T02220217 $ =
2016-07-31 03:54 METAR KRIC 310754Z 01003KT 10SM FEW250 22/22 A2993 RMK AO2 SLP138 T02220217 $ =
2016-07-31 02:54 METAR KRIC 310654Z 31003KT 10SM FEW250 23/22 A2993 RMK AO2 SLP138 T02280222 $ =
2016-07-31 01:54 METAR KRIC 310554Z 17003KT 10SM SCT250 23/22 A2995 RMK AO2 SLP145 T02280222
                 10256 20228 58012 $ =
2016-07-31 00:54 METAR KRIC 310454Z 17004KT 10SM SCT110 BKN250 23/22 A2999 RMK AO2 SLP159
                 T02280222 402890228 $ =
2016-07-30 23:54 METAR KRIC 310354Z 14003KT 10SM SCT130 BKN250 23/22 A2998 RMK AO2 SLP155
                 T02330222 $ =
2016-07-30 22:54 METAR KRIC 310254Z 31006KT 10SM FEW030 BKN150 BKN250 24/22 A2998 RMK AO2 SLP156
                 T02440222 52013 $ =
2016-07-30 21:54 METAR KRIC 310154Z 23005KT 10SM FEW030 BKN150 BKN250 24/22 A2998 RMK AO2 SLP154
                 LTG DSNT NW T02440222 $ =
2016-07-30 20:54 METAR KRIC 310054Z 19005KT 10SM FEW035 FEW090 BKN130 BKN250 24/22 A2995 RMK AO2
                 SLP146 LTG DSNT NW T02440222 $ =
2016-07-30 19:54 METAR KRIC 302354Z 18004KT 10SM FEW011 FEW040 BKN180 BKN250 25/22 A2995 RMK AO2
                 SLP144 T02500222 10267 20239 51004 $ =
2016-07-30 18:54 METAR KRIC 302254Z 17012KT 10SM FEW011 SCT120 BKN250 26/22 A2994 RMK AO2 SLP142
                 T02560222 $ =
2016-07-30 17:54 METAR KRIC 302154Z 14017G21KT 10SM SCT011 BKN120 BKN250 26/23 A2994 RMK AO2
                 SLP143 T02610233 $ =
2016-07-30 16:54 METAR KRIC 302054Z 13013KT 10SM FEW006 FEW035 BKN150 BKN250 26/23 A2993 RMK AO2
                 SLP140 T02560228 56015 $ =
2016-07-30 15:54 METAR KRIC 301954Z 10010KT 10SM FEW006 FEW030 FEW075 BKN150 BKN250 26/23 A2994
                 RMK AO2 SLP142 T02560228 $ =
2016-07-30 15:22 METAR KRIC 301922Z 10010KT 10SM FEW005 FEW075 BKN200 BKN250 25/24 A2996 RMK AO2
                 T02500239 $ =
2016-07-30 14:54 METAR KRIC 301854Z 10007KT 10SM FEW100 BKN200 BKN250 24/23 A2996 RMK AO2 SLP149
                 T02440233 $ =
2016-07-30 13:54 METAR KRIC 301754Z 10005KT 10SM FEW045 SCT080 BKN100 BKN250 24/22 A2998 RMK AO2
                 RAE47 TSE47 SLP155 P0004 60012 T02390222 10289 20228 58004 $ =
2016-07-30 13:25 METAR KRIC 301725Z 11006KT 3SM R34/4500VP6000FT TSRA BR FEW006 SCT049CB BKN085
                 OVC250 23/22 A3000 RMK AO2 OCNL LTGCGCC E TS OHD MOV E P0004 T02330222 $ =
2016-07-30 13:22 METAR KRIC 301722Z 12005KT 1 1/2SM R34/4500VP6000FT TSRA BR FEW006 SCT049CB
                 BKN085 OVC250 23/22 A3000 RMK AO2 OCNL LTGCGCC E TS OHD MOV E P0004 T02330222 $
                 =
2016-07-30 13:15 METAR KRIC 301715Z 13007KT 1 3/4SM TSRA BR SCT006 BKN023 OVC047CB 23/22 A3000 =
2016-07-30 13:00 METAR KRIC 301700Z 14016KT 3SM R34/2600VP6000FT TSRA BR SCT006 BKN023 OVC047CB
                 23/22 A3001 RMK AO2 OCNL LTGCGCC E TS OHD MOV E P0001 T02280222 $ =
2016-07-30 12:54 METAR KRIC 301654Z 16008G18KT 1 3/4SM R34/2000V5000FT TSRA BR SCT008 BKN023
                 OVC045CB 23/23 A3001 RMK AO2 PK WND 19026/1641 RAB1555 TSB44 SLP165 OCNL LTGCGCC
                 E-W TS S MOV E P0008 T02330228 =
2016-07-30 12:50 METAR KRIC 301650Z 18012G26KT 1 3/4SM R34/1800V2800FT TSRA BR SCT008 BKN023
                 OVC045CB 23/23 A3001 RMK AO2 PK WND 19026/1641 RAB1555 TSB44 OCNL LTGCGCC E-W TS
                 S MOV E P0006 =
2016-07-30 11:54 METAR KRIC 301554Z 00000KT 10SM FEW022 BKN045 BKN070 BKN250 28/23 A2999 RMK AO2
                 RAB24E35 SLP158 P0000 T02830228 =
2016-07-30 10:54 METAR KRIC 301454Z 17005KT 10SM FEW025 BKN100 OVC220 28/23 A2999 RMK AO2 SLP159
                 T02780233 53003 =
2016-07-30 09:54 METAR KRIC 301354Z 16008KT 10SM FEW025 BKN100 BKN220 27/23 A2998 RMK AO2 SLP156
                 T02720233 =
2016-07-30 08:54 METAR KRIC 301254Z 17005KT 8SM FEW090 BKN220 26/23 A2999 RMK AO2 SLP160
                 T02560233 =
2016-07-30 07:54 METAR KRIC 301154Z 16004KT 9SM FEW100 BKN200 25/23 A2999 RMK AO2 SLP156
                 T02500233 10250 20228 53016 =
2016-07-30 06:54 METAR KRIC 301054Z 14003KT 8SM SCT100 23/22 A2997 RMK AO2 SLP152 T02330222 =
2016-07-30 05:54 METAR KRIC 300954Z 13004KT 8SM SCT160 23/22 A2994 RMK AO2 SLP142 T02280217 =

Support USWX by starting your Amazon purchase here.